Time;durP1;ratioP1;P1;durP2;ratioP2;P2;SDS_P1;SDS_P2;PMS_P1;PMS_P2;Temp;Humidity;BMP_temperature;BMP_pressure;BME280_temperature;BME280_humidity;BME280_pressure;Samples;Min_cycle;Max_cycle;Signal;HPM_P1;HPM_P2
2023/07/18 00:01:02;;;;;;;0.70;0.50;;;;;;;30.06;30.43;101259.22;4941970;28;20062;-78
2023/07/18 00:03:31;;;;;;;1.13;0.70;;;;;;;30.20;30.45;101262.16;4948704;28;20083;-79
2023/07/18 00:06:00;;;;;;;2.53;0.47;;;;;;;30.31;29.99;101256.38;4951424;28;20051;-78
2023/07/18 00:08:28;;;;;;;0.55;0.50;;;;;;;30.42;30.44;101259.41;4950033;28;20244;-81
2023/07/18 00:10:58;;;;;;;3.72;0.85;;;;;;;30.49;29.34;101252.00;4950122;28;20532;-79
2023/07/18 00:13:27;;;;;;;1.88;0.60;;;;;;;30.57;29.45;101248.97;4951163;28;20063;-82
2023/07/18 00:15:56;;;;;;;1.27;0.47;;;;;;;30.60;29.77;101241.66;4952485;28;20058;-82
2023/07/18 00:18:24;;;;;;;1.55;0.47;;;;;;;30.67;29.25;101240.44;4951418;28;20055;-80
2023/07/18 00:20:55;;;;;;;0.57;0.47;;;;;;;30.67;29.82;101242.22;4950522;28;20103;-78
2023/07/18 00:23:25;;;;;;;1.60;0.40;;;;;;;30.61;29.39;101242.53;4950126;28;20667;-79
2023/07/18 00:25:54;;;;;;;0.88;0.45;;;;;;;30.60;29.24;101247.00;4950933;28;20062;-80
2023/07/18 00:28:24;;;;;;;0.82;0.55;;;;;;;30.62;30.50;101242.44;4947717;28;20078;-81
2023/07/18 00:30:55;;;;;;;1.95;0.50;;;;;;;30.50;29.81;101235.03;4951721;28;20051;-77
2023/07/18 00:33:31;;;;;;;1.60;0.60;;;;;;;30.49;30.13;101241.31;4947773;28;20050;-81
2023/07/18 00:35:59;;;;;;;1.17;0.40;;;;;;;30.44;30.48;101240.63;4952618;28;20501;-76
2023/07/18 00:38:28;;;;;;;0.50;0.40;;;;;;;30.33;29.60;101249.16;4950656;28;20126;-80
2023/07/18 00:40:59;;;;;;;1.23;0.50;;;;;;;30.13;29.71;101244.69;4948025;28;20055;-77
2023/07/18 00:43:34;;;;;;;0.50;0.43;;;;;;;30.05;30.10;101241.47;4948617;28;21003;-76
2023/07/18 00:46:03;;;;;;;0.77;0.40;;;;;;;30.06;29.92;101245.88;4948850;28;20332;-77
2023/07/18 00:48:34;;;;;;;1.90;0.50;;;;;;;30.04;29.85;101247.75;4948573;28;20743;-80
2023/07/18 00:51:04;;;;;;;0.63;0.20;;;;;;;29.98;30.21;101243.53;4949523;28;20130;-79
2023/07/18 00:53:33;;;;;;;0.70;0.50;;;;;;;29.96;29.83;101237.44;4954010;28;20101;-81
2023/07/18 00:56:03;;;;;;;0.40;0.40;;;;;;;29.79;30.82;101243.47;4953706;28;20512;-78
2023/07/18 00:58:35;;;;;;;0.98;0.55;;;;;;;29.56;31.82;101244.44;4954418;28;20509;-78
2023/07/18 01:01:05;;;;;;;3.00;0.60;;;;;;;29.43;32.23;101245.88;4950887;28;20051;-80
2023/07/18 01:03:34;;;;;;;0.88;0.45;;;;;;;29.30;32.88;101245.53;4948142;28;20054;-78
2023/07/18 01:06:03;;;;;;;1.90;0.50;;;;;;;28.97;33.09;101240.56;4947093;28;20086;-80
2023/07/18 01:08:39;;;;;;;1.30;0.60;;;;;;;28.77;33.32;101238.72;4949612;28;20072;-79
2023/07/18 01:11:09;;;;;;;0.98;0.55;;;;;;;28.58;34.24;101235.00;4954006;28;20047;-76
2023/07/18 01:13:39;;;;;;;1.60;0.50;;;;;;;28.50;34.66;101232.66;4950050;28;20587;-78
2023/07/18 01:16:07;;;;;;;1.52;0.47;;;;;;;28.51;35.16;101234.38;4948407;28;20687;-77
2023/07/18 01:18:37;;;;;;;1.60;0.47;;;;;;;28.42;35.53;101237.34;4949623;28;20051;-79
2023/07/18 01:21:08;;;;;;;1.67;0.55;;;;;;;28.33;34.81;101233.22;4951812;28;20083;-78
2023/07/18 01:23:39;;;;;;;1.85;0.40;;;;;;;28.26;35.03;101238.84;4952766;28;20295;-78
2023/07/18 01:26:07;;;;;;;0.50;0.40;;;;;;;28.16;34.61;101228.53;4946853;28;20064;-80
2023/07/18 01:28:36;;;;;;;2.33;0.65;;;;;;;28.09;34.68;101236.81;4945231;28;20040;-76
2023/07/18 01:31:08;;;;;;;1.60;0.65;;;;;;;28.05;34.81;101241.34;4940654;28;20066;-78
2023/07/18 01:33:37;;;;;;;1.25;0.60;;;;;;;28.08;35.57;101235.91;4950974;28;21194;-78
2023/07/18 01:36:07;;;;;;;0.85;0.57;;;;;;;27.98;35.33;101235.38;4949460;28;20051;-77
2023/07/18 01:38:35;;;;;;;4.28;0.75;;;;;;;27.97;35.44;101232.78;4951288;28;20572;-81
2023/07/18 01:41:07;;;;;;;0.60;0.50;;;;;;;27.96;35.94;101231.91;4948366;28;20091;-79
2023/07/18 01:43:36;;;;;;;0.90;0.68;;;;;;;27.95;35.27;101230.19;4944372;28;20046;-79
2023/07/18 01:46:05;;;;;;;1.80;0.77;;;;;;;27.88;35.13;101233.13;4945733;28;20055;-76
2023/07/18 01:48:34;;;;;;;2.72;0.55;;;;;;;27.76;34.99;101235.25;4950654;28;20051;-80
2023/07/18 01:51:04;;;;;;;0.82;0.52;;;;;;;27.75;35.80;101227.31;4948339;28;20044;-79
2023/07/18 01:53:35;;;;;;;5.35;0.63;;;;;;;27.73;35.33;101235.34;4951552;28;20055;-75
2023/07/18 01:56:06;;;;;;;0.98;0.65;;;;;;;27.69;36.13;101232.84;4951325;28;20051;-78
2023/07/18 01:58:34;;;;;;;1.77;0.70;;;;;;;27.70;35.87;101235.44;4947730;28;20139;-75
2023/07/18 02:01:04;;;;;;;0.82;0.60;;;;;;;27.70;36.04;101235.44;4950589;28;20058;-78
2023/07/18 02:03:33;;;;;;;1.48;0.70;;;;;;;27.70;36.35;101235.44;4952835;28;20054;-81
2023/07/18 02:06:02;;;;;;;1.33;0.68;;;;;;;27.65;36.09;101241.84;4950486;28;20047;-78
2023/07/18 02:08:30;;;;;;;1.63;0.73;;;;;;;27.47;36.12;101227.41;4946632;28;20122;-80
2023/07/18 02:10:59;;;;;;;2.00;0.57;;;;;;;27.32;36.57;101232.28;4951632;28;20246;-78
2023/07/18 02:13:29;;;;;;;3.30;0.70;;;;;;;27.09;36.56;101226.81;4951003;28;20050;-79
2023/07/18 02:15:58;;;;;;;0.75;0.50;;;;;;;26.92;36.31;101230.88;4950678;28;20090;-77
2023/07/18 02:18:26;;;;;;;1.52;0.60;;;;;;;26.84;36.65;101235.53;4951296;28;20071;-79
2023/07/18 02:20:55;;;;;;;1.38;1.15;;;;;;;26.66;37.47;101221.06;4948378;28;20477;-81
2023/07/18 02:23:24;;;;;;;0.65;0.50;;;;;;;26.53;37.19;101227.63;4951105;28;20156;-79
2023/07/18 02:25:52;;;;;;;2.10;0.50;;;;;;;26.38;37.63;101228.91;4953504;28;20054;-78
2023/07/18 02:28:25;;;;;;;1.25;0.60;;;;;;;26.27;37.89;101225.69;4951304;28;20070;-78
2023/07/18 02:30:55;;;;;;;1.20;0.60;;;;;;;26.15;38.32;101232.22;4950076;28;20069;-78
2023/07/18 02:33:25;;;;;;;1.13;0.77;;;;;;;26.06;38.40;101233.34;4952713;28;20138;-77
2023/07/18 02:35:53;;;;;;;1.63;0.70;;;;;;;25.95;38.23;101229.25;4951220;28;20051;-79
2023/07/18 02:38:26;;;;;;;1.25;0.60;;;;;;;25.89;38.62;101231.16;4949728;28;20552;-79
2023/07/18 02:40:55;;;;;;;1.55;0.65;;;;;;;25.84;39.04;101232.16;4947533;28;20142;-79
2023/07/18 02:43:23;;;;;;;1.60;1.00;;;;;;;25.84;38.84;101237.47;4954204;28;20051;-78
2023/07/18 02:45:52;;;;;;;0.80;0.50;;;;;;;25.81;39.04;101240.19;4950963;28;20051;-80
2023/07/18 02:48:22;;;;;;;3.60;0.85;;;;;;;25.79;38.76;101239.34;4945862;28;20051;-79
2023/07/18 02:50:51;;;;;;;0.98;0.52;;;;;;;25.76;38.88;101231.47;4948953;28;20050;-76
2023/07/18 02:53:20;;;;;;;1.33;0.70;;;;;;;25.62;38.90;101238.00;4949639;28;20043;-78
2023/07/18 02:55:49;;;;;;;2.80;0.80;;;;;;;25.57;39.15;101234.59;4942890;28;20602;-79
2023/07/18 02:58:18;;;;;;;0.93;0.82;;;;;;;25.49;39.99;101247.16;4950304;28;20058;-79
2023/07/18 03:00:47;;;;;;;2.90;0.68;;;;;;;25.43;39.74;101242.03;4951759;28;20047;-81
2023/07/18 03:03:15;;;;;;;1.33;0.70;;;;;;;25.34;39.63;101239.63;4951695;28;20531;-81
2023/07/18 03:05:46;;;;;;;1.83;0.70;;;;;;;25.35;40.54;101250.16;4953924;28;20082;-82
2023/07/18 03:08:14;;;;;;;2.10;0.50;;;;;;;25.29;39.97;101251.19;4958832;28;20053;-81
2023/07/18 03:10:42;;;;;;;0.88;0.60;;;;;;;25.24;39.03;101246.88;4947162;28;20046;-80
2023/07/18 03:13:10;;;;;;;1.80;0.60;;;;;;;25.19;39.04;101247.00;4944488;28;20086;-82
2023/07/18 03:15:39;;;;;;;1.33;0.73;;;;;;;25.17;38.94;101246.13;4949944;28;20047;-82
2023/07/18 03:18:08;;;;;;;2.05;0.63;;;;;;;25.12;37.36;101248.00;4950016;28;20103;-80
2023/07/18 03:20:37;;;;;;;3.47;0.80;;;;;;;25.06;38.21;101248.19;4948218;28;20507;-79
2023/07/18 03:23:07;;;;;;;1.83;0.60;;;;;;;25.00;38.69;101248.31;4950764;28;20051;-79
2023/07/18 03:25:36;;;;;;;2.15;0.65;;;;;;;24.93;38.82;101246.72;4950501;28;20576;-82
2023/07/18 03:28:05;;;;;;;1.30;0.60;;;;;;;24.88;38.86;101250.31;4947787;28;20051;-78
2023/07/18 03:30:33;;;;;;;1.33;0.75;;;;;;;24.78;38.63;101254.06;4948441;28;20070;-83
2023/07/18 03:33:02;;;;;;;0.95;0.50;;;;;;;24.70;38.32;101252.50;4950576;28;20047;-76
2023/07/18 03:35:31;;;;;;;1.42;0.70;;;;;;;24.61;38.24;101256.19;4947168;28;20052;-81
2023/07/18 03:37:59;;;;;;;2.85;0.60;;;;;;;24.49;38.40;101251.16;4950729;28;20493;-75
2023/07/18 03:40:37;;;;;;;1.27;0.60;;;;;;;24.33;38.93;101251.44;4945160;28;20154;-77
2023/07/18 03:43:06;;;;;;;1.63;0.75;;;;;;;24.27;39.32;101256.84;4947968;28;20040;-78
2023/07/18 03:45:36;;;;;;;0.90;0.50;;;;;;;24.17;39.22;101263.22;4948172;28;20055;-76
2023/07/18 03:48:05;;;;;;;1.95;0.65;;;;;;;24.08;38.98;101255.47;4943068;28;20544;-79
2023/07/18 03:50:34;;;;;;;0.57;0.50;;;;;;;23.97;39.61;101256.50;4948753;28;20584;-76
2023/07/18 03:53:03;;;;;;;1.40;0.47;;;;;;;23.90;39.51;101261.94;4946887;28;20596;-76
2023/07/18 03:55:31;;;;;;;2.85;0.77;;;;;;;23.78;40.09;101263.03;4949078;28;20649;-78
2023/07/18 03:58:01;;;;;;;1.27;0.80;;;;;;;23.68;40.16;101266.69;4949725;28;20549;-75
2023/07/18 04:00:30;;;;;;;2.38;0.60;;;;;;;23.54;40.72;101267.78;4950626;28;20130;-78
2023/07/18 04:02:59;;;;;;;3.22;0.57;;;;;;;23.42;40.38;101265.34;4949511;28;20105;-80
2023/07/18 04:05:27;;;;;;;3.17;0.50;;;;;;;23.35;41.11;101261.06;4944409;28;20051;-79
2023/07/18 04:07:56;;;;;;;0.88;0.50;;;;;;;23.27;41.14;101262.94;4946154;28;20051;-77
2023/07/18 04:10:25;;;;;;;1.90;0.60;;;;;;;23.21;41.28;101264.78;4947663;28;20620;-78
2023/07/18 04:12:53;;;;;;;1.30;0.50;;;;;;;23.15;41.94;101264.84;4947216;28;20104;-78
2023/07/18 04:15:23;;;;;;;1.27;0.70;;;;;;;23.11;41.88;101270.19;4947011;28;20048;-76
2023/07/18 04:17:52;;;;;;;2.38;0.60;;;;;;;23.05;41.77;101275.59;4943654;28;20047;-76
2023/07/18 04:20:21;;;;;;;2.05;0.65;;;;;;;22.96;41.85;101273.91;4949236;28;20051;-77
2023/07/18 04:22:50;;;;;;;5.25;0.98;;;;;;;22.87;41.99;101287.22;4951646;28;20059;-76
2023/07/18 04:25:19;;;;;;;1.20;0.50;;;;;;;22.79;42.11;101277.66;4952515;28;20051;-77
2023/07/18 04:27:47;;;;;;;0.93;0.47;;;;;;;22.73;42.19;101280.34;4953509;28;20111;-75
2023/07/18 04:30:16;;;;;;;1.13;0.70;;;;;;;22.63;42.78;101283.09;4952381;28;20119;-75
2023/07/18 04:32:48;;;;;;;2.25;0.77;;;;;;;22.54;42.88;101284.97;4931108;29;20044;-75
2023/07/18 04:35:16;;;;;;;1.53;0.50;;;;;;;22.44;42.97;101285.09;4951866;28;20126;-76
2023/07/18 04:37:45;;;;;;;3.47;0.60;;;;;;;22.34;43.93;101287.84;4952406;28;20051;-75
2023/07/18 04:40:14;;;;;;;1.40;0.60;;;;;;;22.26;43.67;101287.03;4950607;28;20091;-75
2023/07/18 04:42:43;;;;;;;1.05;0.50;;;;;;;22.12;43.79;101287.13;4952629;28;20044;-73
2023/07/18 04:45:12;;;;;;;1.48;0.70;;;;;;;22.08;44.22;101279.28;4950221;28;20115;-76
2023/07/18 04:47:41;;;;;;;3.63;0.60;;;;;;;22.02;44.40;101290.75;4947382;28;20536;-75
2023/07/18 04:50:14;;;;;;;2.03;0.68;;;;;;;21.92;44.56;101289.97;4952996;28;20055;-73
2023/07/18 04:52:42;;;;;;;1.95;0.50;;;;;;;21.84;44.74;101286.53;4952350;28;20087;-75
2023/07/18 04:55:11;;;;;;;1.55;0.57;;;;;;;21.76;45.13;101277.81;4953405;28;20036;-74
2023/07/18 04:57:40;;;;;;;0.65;0.55;;;;;;;21.66;45.33;101297.22;4950445;28;20134;-74
2023/07/18 05:00:13;;;;;;;1.80;0.60;;;;;;;21.58;45.38;101299.91;4952747;28;20083;-77
2023/07/18 05:02:42;;;;;;;2.25;0.65;;;;;;;21.43;45.41;101284.22;4951922;28;20134;-75
2023/07/18 05:05:13;;;;;;;3.63;0.68;;;;;;;21.50;45.58;101296.44;4951560;28;20521;-76
2023/07/18 05:07:44;;;;;;;1.92;0.63;;;;;;;21.44;45.82;101297.38;4949599;28;20065;-73
2023/07/18 05:10:15;;;;;;;2.40;0.65;;;;;;;21.38;45.99;101296.50;4950513;28;20051;-73
2023/07/18 05:12:44;;;;;;;1.42;0.60;;;;;;;21.29;46.62;101292.19;4948080;28;20087;-74
2023/07/18 05:15:12;;;;;;;0.30;0.30;;;;;;;21.20;46.77;101292.22;4951551;28;20941;-76
2023/07/18 05:17:41;;;;;;;2.38;0.50;;;;;;;21.08;46.89;101291.41;4948095;28;20052;-78
2023/07/18 05:20:15;;;;;;;2.28;0.57;;;;;;;21.04;47.19;101294.94;4951879;28;20066;-78
2023/07/18 05:22:45;;;;;;;0.65;0.40;;;;;;;20.98;47.23;101287.09;4948928;28;20059;-76
2023/07/18 05:25:15;;;;;;;1.25;0.68;;;;;;;20.90;47.45;101295.00;4952130;28;20046;-77
2023/07/18 05:27:44;;;;;;;4.65;0.77;;;;;;;20.85;47.67;101303.81;4947935;28;20588;-77
2023/07/18 05:30:20;;;;;;;0.80;0.40;;;;;;;20.76;48.01;101314.38;4950185;28;20150;-77
2023/07/18 05:32:54;;;;;;;0.68;0.50;;;;;;;20.64;48.60;101295.13;4947671;28;20043;-75
2023/07/18 05:35:24;;;;;;;0.45;0.32;;;;;;;20.60;48.39;101309.16;4949560;28;20047;-76
2023/07/18 05:37:56;;;;;;;1.15;0.60;;;;;;;20.55;48.08;101313.53;4928306;28;20086;-77
2023/07/18 05:40:24;;;;;;;1.27;0.52;;;;;;;20.47;48.46;101310.03;4949934;28;20135;-76
2023/07/18 05:42:53;;;;;;;0.80;0.60;;;;;;;20.42;48.84;101324.94;4949612;28;20105;-75
2023/07/18 05:45:21;;;;;;;1.55;0.55;;;;;;;20.29;50.01;101321.44;4948758;28;20067;-75
2023/07/18 05:47:50;;;;;;;2.05;0.93;;;;;;;20.22;50.13;101324.97;4952885;28;20051;-79
2023/07/18 05:50:19;;;;;;;0.60;0.40;;;;;;;20.17;49.83;101322.34;4945700;28;20051;-78
2023/07/18 05:52:49;;;;;;;1.25;0.45;;;;;;;20.16;49.85;101328.50;4949416;28;20514;-78
2023/07/18 05:55:18;;;;;;;1.92;0.45;;;;;;;20.12;49.87;101326.72;4946768;28;20572;-77
2023/07/18 05:57:47;;;;;;;3.13;0.50;;;;;;;20.05;50.02;101327.63;4947110;28;20051;-74
2023/07/18 06:00:18;;;;;;;0.30;0.30;;;;;;;20.01;50.53;101326.72;4955062;28;20078;-76
2023/07/18 06:02:49;;;;;;;1.52;0.45;;;;;;;19.96;51.07;101332.88;4948716;28;20043;-77
2023/07/18 06:05:17;;;;;;;2.55;1.05;;;;;;;19.88;50.52;101325.88;4945980;28;20086;-78
2023/07/18 06:07:46;;;;;;;2.40;0.75;;;;;;;19.85;50.79;101328.47;4944943;28;20485;-78
2023/07/18 06:10:16;;;;;;;1.05;0.50;;;;;;;19.85;51.16;101327.59;4946646;28;20058;-76
2023/07/18 06:12:45;;;;;;;0.80;0.50;;;;;;;19.81;51.30;101323.22;4946717;28;20062;-78
2023/07/18 06:15:14;;;;;;;0.47;0.43;;;;;;;19.80;51.33;101329.38;4947228;28;20062;-77
2023/07/18 06:17:43;;;;;;;3.10;0.60;;;;;;;19.77;50.98;101334.59;4952578;28;20497;-79
2023/07/18 06:20:13;;;;;;;0.82;0.40;;;;;;;19.75;51.10;101333.75;4947761;28;20820;-77
2023/07/18 06:22:47;;;;;;;0.57;0.50;;;;;;;19.74;51.73;101331.97;4950492;28;20106;-77
2023/07/18 06:25:17;;;;;;;2.83;0.57;;;;;;;19.71;51.69;101332.84;4948430;28;20110;-77
2023/07/18 06:27:45;;;;;;;2.25;0.65;;;;;;;19.66;51.90;101340.69;4950553;28;20608;-76
2023/07/18 06:30:14;;;;;;;1.60;0.47;;;;;;;19.65;51.65;101338.97;4945581;28;20532;-78
2023/07/18 06:32:44;;;;;;;1.10;0.50;;;;;;;19.63;52.13;101334.56;4946573;28;20047;-78
2023/07/18 06:35:15;;;;;;;0.70;0.50;;;;;;;19.59;52.26;101332.81;4946881;28;20059;-77
2023/07/18 06:37:44;;;;;;;1.60;0.50;;;;;;;19.58;52.59;101341.53;4949861;28;20051;-77
2023/07/18 06:40:14;;;;;;;1.55;0.50;;;;;;;19.54;52.59;101339.78;4947293;28;20055;-78
2023/07/18 06:42:44;;;;;;;0.65;0.40;;;;;;;19.50;52.74;101343.31;4945902;28;20043;-79
2023/07/18 06:45:14;;;;;;;2.53;0.60;;;;;;;19.49;53.27;101339.78;4944463;28;20051;-76
2023/07/18 06:47:43;;;;;;;1.92;0.57;;;;;;;19.48;52.89;101334.53;4950264;28;20517;-78
2023/07/18 06:50:13;;;;;;;1.58;0.52;;;;;;;19.49;53.06;101339.78;4945977;28;20051;-79
2023/07/18 06:52:41;;;;;;;0.88;0.50;;;;;;;19.48;53.18;101339.78;4951158;28;20045;-78
2023/07/18 06:55:10;;;;;;;0.77;0.30;;;;;;;19.48;53.16;101335.41;4949697;28;20051;-79
2023/07/18 06:57:39;;;;;;;0.70;0.40;;;;;;;19.45;53.10;101338.91;4943929;28;20058;-77
2023/07/18 07:00:12;;;;;;;1.10;0.45;;;;;;;19.43;53.16;101340.66;4949419;28;20043;-78
2023/07/18 07:02:41;;;;;;;0.82;0.43;;;;;;;19.40;53.43;101335.41;4952549;28;20055;-78
2023/07/18 07:05:10;;;;;;;1.55;0.57;;;;;;;19.38;53.16;101329.28;4946801;28;20050;-79
2023/07/18 07:07:39;;;;;;;1.35;0.40;;;;;;;19.36;53.59;101336.25;4946813;28;20055;-77
2023/07/18 07:10:09;;;;;;;2.08;0.50;;;;;;;19.33;53.70;101331.00;4944397;28;20524;-77
2023/07/18 07:12:38;;;;;;;6.38;0.80;;;;;;;19.31;53.63;101332.75;4947692;28;20097;-77
2023/07/18 07:15:07;;;;;;;0.40;0.30;;;;;;;19.30;53.59;101335.38;4949273;28;20047;-78
2023/07/18 07:17:37;;;;;;;1.15;0.50;;;;;;;19.26;54.19;101334.47;4946689;28;20056;-75
2023/07/18 07:20:08;;;;;;;1.33;1.20;;;;;;;19.22;54.77;101327.50;4946803;28;20047;-78
2023/07/18 07:22:43;;;;;;;0.80;0.50;;;;;;;19.17;54.45;101327.47;4945499;28;20055;-78
2023/07/18 07:25:13;;;;;;;0.95;0.68;;;;;;;19.12;55.46;101333.56;4945084;28;20402;-78
2023/07/18 07:27:44;;;;;;;0.55;0.47;;;;;;;19.09;55.24;101346.69;4951027;28;20051;-76
2023/07/18 07:30:15;;;;;;;0.70;0.55;;;;;;;19.05;55.55;101330.91;4948063;28;20109;-77
2023/07/18 07:32:45;;;;;;;0.65;0.50;;;;;;;19.01;55.13;101338.75;4950493;28;20057;-76
2023/07/18 07:35:14;;;;;;;0.82;0.50;;;;;;;18.98;55.73;101334.38;4950271;28;20043;-77
2023/07/18 07:37:44;;;;;;;1.25;0.82;;;;;;;18.95;56.03;101339.63;4944045;28;20107;-76
2023/07/18 07:40:13;;;;;;;1.77;0.60;;;;;;;18.91;55.42;101345.72;4949686;28;20138;-77
2023/07/18 07:42:44;;;;;;;1.20;0.50;;;;;;;18.79;55.57;101338.66;4952457;28;20047;-75
2023/07/18 07:45:13;;;;;;;1.88;0.80;;;;;;;18.80;55.81;101344.78;4950784;28;20198;-77
2023/07/18 07:47:42;;;;;;;0.60;0.40;;;;;;;18.77;55.81;101340.41;4945898;28;20067;-77
2023/07/18 07:50:13;;;;;;;2.47;0.60;;;;;;;18.75;56.42;101347.34;4947499;28;20054;-78
2023/07/18 07:52:42;;;;;;;2.03;0.60;;;;;;;18.71;56.16;101342.09;4947024;28;20115;-78
2023/07/18 07:55:13;;;;;;;1.80;0.65;;;;;;;18.69;56.81;101349.06;4949701;28;20114;-77
2023/07/18 07:57:41;;;;;;;0.77;0.40;;;;;;;18.66;56.95;101347.31;4951650;28;20056;-76
2023/07/18 08:00:12;;;;;;;0.85;0.47;;;;;;;18.63;57.50;101337.69;4951784;28;20059;-78
2023/07/18 08:02:41;;;;;;;1.05;0.60;;;;;;;18.55;57.94;101338.50;4953622;28;20062;-77
2023/07/18 08:05:12;;;;;;;1.23;0.70;;;;;;;18.52;57.42;101335.88;4948908;28;20047;-77
2023/07/18 08:07:42;;;;;;;0.60;0.40;;;;;;;18.46;57.92;101336.69;4950734;28;20125;-77
2023/07/18 08:10:11;;;;;;;2.17;0.50;;;;;;;18.43;56.60;101339.31;4948786;28;20138;-78
2023/07/18 08:12:40;;;;;;;0.93;0.50;;;;;;;18.40;57.39;101334.06;4950892;28;20513;-76
2023/07/18 08:15:10;;;;;;;0.80;0.60;;;;;;;18.37;59.65;101334.91;4950225;28;20054;-77
2023/07/18 08:17:38;;;;;;;1.70;0.47;;;;;;;18.29;58.59;101328.72;4949103;28;20078;-77
2023/07/18 08:20:10;;;;;;;0.80;0.60;;;;;;;18.27;59.00;101333.06;4948648;28;20702;-77
2023/07/18 08:22:40;;;;;;;1.07;0.43;;;;;;;18.25;58.27;101331.31;4951226;28;20135;-78
2023/07/18 08:25:09;;;;;;;1.83;0.50;;;;;;;18.24;58.75;101332.19;4952153;28;21525;-77
2023/07/18 08:27:38;;;;;;;1.02;0.40;;;;;;;18.23;59.48;101327.81;4953084;28;20135;-77
2023/07/18 08:30:07;;;;;;;0.77;0.50;;;;;;;18.20;59.46;101326.91;4948219;28;20390;-75
2023/07/18 08:32:36;;;;;;;1.17;0.60;;;;;;;18.17;59.61;101331.28;4946025;28;20055;-77
2023/07/18 08:35:05;;;;;;;0.57;0.50;;;;;;;18.13;59.65;101327.75;4950349;28;20044;-78
2023/07/18 08:37:33;;;;;;;1.27;0.38;;;;;;;18.12;59.31;101320.75;4951559;28;20082;-78
2023/07/18 08:40:05;;;;;;;0.60;0.52;;;;;;;18.11;58.86;101318.13;4949419;28;20489;-77
2023/07/18 08:42:35;;;;;;;0.97;0.50;;;;;;;18.10;58.81;101325.13;4951203;28;20533;-76
2023/07/18 08:45:05;;;;;;;1.23;0.50;;;;;;;18.02;59.36;101318.06;4948979;28;20051;-75
2023/07/18 08:47:34;;;;;;;0.63;0.50;;;;;;;18.03;59.16;101317.16;4951355;28;20050;-74
2023/07/18 08:50:04;;;;;;;2.55;0.50;;;;;;;18.01;59.07;101322.41;4948862;28;20055;-76
2023/07/18 08:52:33;;;;;;;0.85;0.45;;;;;;;18.00;59.23;101315.41;4947906;28;20097;-76
2023/07/18 08:55:03;;;;;;;2.15;0.40;;;;;;;17.97;59.54;101316.28;4946843;28;20047;-75
2023/07/18 08:57:35;;;;;;;0.75;0.73;;;;;;;17.96;59.72;101318.91;4949459;28;20551;-75
2023/07/18 09:00:07;;;;;;;1.40;0.88;;;;;;;17.92;59.59;101319.72;4948465;28;20758;-76
2023/07/18 09:02:37;;;;;;;0.65;0.43;;;;;;;17.90;59.76;101324.06;4949064;28;20043;-76
2023/07/18 09:05:06;;;;;;;0.57;0.50;;;;;;;17.87;58.83;101319.69;4946849;28;20680;-77
2023/07/18 09:07:37;;;;;;;1.23;0.45;;;;;;;17.86;59.46;101322.28;4950589;28;20075;-77
2023/07/18 09:10:08;;;;;;;0.38;0.38;;;;;;;17.83;59.75;101322.28;4945012;28;20051;-77
2023/07/18 09:12:37;;;;;;;0.40;0.30;;;;;;;17.76;59.83;101319.56;4949749;28;20046;-76
2023/07/18 09:15:07;;;;;;;0.57;0.35;;;;;;;17.72;59.78;101327.38;4949865;28;20047;-76
2023/07/18 09:17:41;;;;;;;4.45;0.90;;;;;;;17.70;60.01;101327.34;4949519;28;20150;-76
2023/07/18 09:20:10;;;;;;;1.92;0.60;;;;;;;17.68;59.80;101315.09;4949908;28;20573;-76
2023/07/18 09:22:40;;;;;;;0.57;0.30;;;;;;;17.65;60.28;101313.34;4950361;28;20099;-76
2023/07/18 09:25:14;;;;;;;2.92;0.65;;;;;;;17.63;60.74;101315.06;4951629;28;20058;-77
2023/07/18 09:27:43;;;;;;;1.25;0.40;;;;;;;17.57;60.20;101315.91;4950125;28;20174;-75
2023/07/18 09:30:12;;;;;;;4.00;0.40;;;;;;;17.55;60.20;101311.50;4949596;28;20079;-78
2023/07/18 09:32:41;;;;;;;1.17;0.55;;;;;;;17.53;60.13;101319.34;4949374;28;20130;-77
2023/07/18 09:35:13;;;;;;;2.25;0.73;;;;;;;17.51;60.56;101314.97;4949472;28;20051;-77
2023/07/18 09:37:47;;;;;;;0.30;0.30;;;;;;;17.46;61.39;101309.69;4950048;28;20039;-74
2023/07/18 09:40:19;;;;;;;2.67;0.50;;;;;;;17.38;61.32;101316.56;4947929;28;20674;-75
2023/07/18 09:42:49;;;;;;;1.05;0.52;;;;;;;17.38;61.17;101319.19;4948704;28;20059;-77
2023/07/18 09:45:18;;;;;;;0.80;0.45;;;;;;;17.36;61.69;101316.56;4948932;28;20059;-76
2023/07/18 09:47:47;;;;;;;2.13;0.45;;;;;;;17.36;61.77;101323.50;4943284;28;20061;-76
2023/07/18 09:50:16;;;;;;;1.80;0.40;;;;;;;17.32;61.24;101324.38;4946273;28;20055;-77
2023/07/18 09:52:49;;;;;;;0.43;0.32;;;;;;;17.27;62.30;101324.31;4948775;28;20043;-76
2023/07/18 09:55:24;;;;;;;0.57;0.57;;;;;;;17.25;62.30;101320.81;4945467;28;20078;-77
2023/07/18 09:57:56;;;;;;;3.00;0.55;;;;;;;17.21;61.60;101319.00;4949988;28;20147;-76
2023/07/18 10:00:25;;;;;;;;;;;;;;;17.20;62.10;101330.31;4949907;28;20051;-77
2023/07/18 10:02:54;;;;;;;0.82;0.50;;;;;;;17.17;61.76;101322.44;4947092;28;19922;-77
2023/07/18 10:05:25;;;;;;;0.40;0.20;;;;;;;17.15;61.23;101329.38;4947940;28;20055;-78
2023/07/18 10:07:54;;;;;;;1.92;0.45;;;;;;;17.12;62.07;101327.63;4947557;28;20055;-77
2023/07/18 10:10:25;;;;;;;0.40;0.40;;;;;;;17.07;62.49;101328.44;4950286;28;20062;-77
2023/07/18 10:13:01;;;;;;;0.60;0.55;;;;;;;17.06;62.12;101329.28;4946427;28;20071;-77
2023/07/18 10:15:30;;;;;;;1.50;0.60;;;;;;;17.05;62.41;101330.16;4950265;28;20074;-77
2023/07/18 10:18:25;;;;;;;0.38;0.30;;;;;;;17.03;62.57;101324.91;4947546;28;20055;-76
2023/07/18 10:21:00;;;;;;;2.42;0.55;;;;;;;16.98;62.51;101323.09;4944688;28;20062;-75
2023/07/18 10:23:44;;;;;;;0.35;0.30;;;;;;;16.95;62.81;101326.56;4948098;28;20059;-77
2023/07/18 10:26:15;;;;;;;1.38;0.47;;;;;;;16.93;62.15;101321.28;4946499;28;20047;-78
2023/07/18 10:28:45;;;;;;;0.73;0.57;;;;;;;16.91;62.01;101314.31;4945350;28;20993;-77
2023/07/18 10:31:29;;;;;;;1.02;0.50;;;;;;;16.89;62.91;101326.47;4949716;28;20110;-78
2023/07/18 10:34:14;;;;;;;1.95;0.40;;;;;;;16.82;62.81;101328.13;4947063;28;20055;-77
2023/07/18 10:36:54;;;;;;;0.57;0.47;;;;;;;16.76;63.13;101325.38;4949872;28;20047;-77
2023/07/18 10:39:38;;;;;;;0.70;0.40;;;;;;;16.72;63.64;101318.34;4949339;28;20142;-78
2023/07/18 10:42:19;;;;;;;3.13;0.50;;;;;;;16.69;63.34;101320.94;4947306;28;20043;-77
2023/07/18 10:44:48;;;;;;;3.47;0.45;;;;;;;16.66;63.43;101328.75;4947554;28;20126;-78
2023/07/18 10:47:18;;;;;;;0.88;0.60;;;;;;;16.60;63.88;101329.53;4947516;28;20057;-77
2023/07/18 10:49:48;;;;;;;1.13;0.60;;;;;;;16.57;63.88;101328.63;4949724;28;20047;-78
2023/07/18 10:52:17;;;;;;;0.90;0.50;;;;;;;16.53;64.14;101336.38;4947285;28;20063;-78
2023/07/18 10:54:46;;;;;;;0.90;0.38;;;;;;;16.48;65.94;101334.59;4943181;28;20055;-77
2023/07/18 10:57:16;;;;;;;0.40;0.40;;;;;;;16.41;65.64;101336.22;4950394;28;20077;-77
2023/07/18 10:59:45;;;;;;;0.40;0.30;;;;;;;16.38;65.78;101338.81;4949011;28;20042;-78
2023/07/18 11:02:14;;;;;;;1.83;0.60;;;;;;;16.36;65.37;101340.50;4952033;28;20078;-78
2023/07/18 11:04:43;;;;;;;1.75;0.70;;;;;;;16.32;65.63;101334.34;4948451;28;20047;-79
2023/07/18 11:07:11;;;;;;;0.52;0.50;;;;;;;16.28;65.67;101334.28;4948488;28;20119;-78
2023/07/18 11:09:41;;;;;;;2.75;0.65;;;;;;;16.22;66.55;101329.84;4949108;28;20051;-77
2023/07/18 11:12:21;;;;;;;1.00;0.45;;;;;;;16.17;67.43;101334.13;4949997;28;20059;-78
2023/07/18 11:14:56;;;;;;;0.50;0.50;;;;;;;16.17;66.99;101339.34;4954529;28;20043;-77
2023/07/18 11:17:25;;;;;;;2.53;0.43;;;;;;;16.13;66.78;101338.41;4960923;28;20099;-78
2023/07/18 11:19:58;;;;;;;0.50;0.40;;;;;;;16.11;67.12;101334.91;4956035;28;20660;-77
2023/07/18 11:22:29;;;;;;;1.05;0.52;;;;;;;16.05;68.73;101329.56;4949102;28;20055;-77
2023/07/18 11:25:00;;;;;;;1.38;0.50;;;;;;;15.99;67.99;101329.50;4948620;28;20063;-79
2023/07/18 11:27:33;;;;;;;3.03;0.32;;;;;;;15.98;67.96;101332.94;4947638;28;20616;-77
2023/07/18 11:30:03;;;;;;;0.57;0.47;;;;;;;15.91;68.59;101331.09;4942479;28;20050;-78
2023/07/18 11:32:33;;;;;;;0.40;0.32;;;;;;;15.88;68.70;101323.22;4943229;28;20052;-78
2023/07/18 11:35:04;;;;;;;1.05;0.55;;;;;;;15.89;67.92;101331.03;4946894;28;20086;-76
2023/07/18 11:37:33;;;;;;;0.98;0.30;;;;;;;15.86;67.84;101325.78;4944979;28;20047;-76